Time;durP1;ratioP1;P1;durP2;ratioP2;P2;SDS_P1;SDS_P2;PMS_P1;PMS_P2;Temp;Humidity;BMP_temperature;BMP_pressure;BME280_temperature;BME280_humidity;BME280_pressure;Samples;Min_cycle;Max_cycle;Signal;HPM_P1;HPM_P2
2022/04/10 00:01:41;;;;;;;3.47;1.08;;;20.70;63.50;;;;;;5032760;28;20025;-76
2022/04/10 00:04:07;;;;;;;1.80;0.88;;;20.70;63.50;;;;;;5032341;28;20381;-76
2022/04/10 00:06:32;;;;;;;1.75;0.80;;;20.70;63.50;;;;;;5032277;28;20108;-75
2022/04/10 00:08:58;;;;;;;2.28;0.70;;;20.70;63.50;;;;;;5033279;28;20056;-76
2022/04/10 00:11:24;;;;;;;1.52;1.00;;;20.70;63.60;;;;;;5032399;28;20075;-76
2022/04/10 00:13:50;;;;;;;2.03;0.73;;;20.70;63.50;;;;;;5033424;28;20029;-76
2022/04/10 00:16:16;;;;;;;0.70;0.70;;;20.70;63.60;;;;;;5030234;28;20430;-76
2022/04/10 00:18:41;;;;;;;0.93;0.57;;;20.70;63.50;;;;;;5047379;28;20377;-76
2022/04/10 00:21:07;;;;;;;2.38;0.68;;;20.70;63.50;;;;;;5032092;28;20369;-76
2022/04/10 00:23:33;;;;;;;0.70;0.60;;;20.70;63.50;;;;;;5031922;28;20056;-76
2022/04/10 00:25:59;;;;;;;1.00;0.80;;;20.70;63.50;;;;;;5063997;28;20060;-76
2022/04/10 00:28:25;;;;;;;0.70;0.60;;;20.70;63.50;;;;;;5063580;28;20049;-76
2022/04/10 00:30:51;;;;;;;2.25;0.60;;;20.70;63.50;;;;;;5046804;28;20037;-76
2022/04/10 00:33:16;;;;;;;0.82;0.77;;;20.70;63.50;;;;;;5032471;28;20030;-76
2022/04/10 00:35:42;;;;;;;1.17;0.70;;;20.70;63.50;;;;;;5032397;28;20029;-76
2022/04/10 00:38:08;;;;;;;2.67;0.90;;;20.70;64.50;;;;;;5031526;28;20024;-76
2022/04/10 00:40:33;;;;;;;1.88;0.82;;;20.80;63.50;;;;;;5032865;28;20117;-76
2022/04/10 00:42:59;;;;;;;2.63;1.23;;;20.80;63.50;;;;;;5031853;28;20021;-76
2022/04/10 00:45:25;;;;;;;2.50;0.90;;;20.80;63.50;;;;;;5032417;28;20052;-76
2022/04/10 00:47:50;;;;;;;2.10;1.02;;;20.80;63.50;;;;;;5029781;28;20021;-76
2022/04/10 00:50:17;;;;;;;2.28;0.57;;;20.80;63.50;;;;;;5030863;28;20028;-76
2022/04/10 00:52:43;;;;;;;0.95;0.73;;;20.80;63.50;;;;;;5045808;28;20498;-76
2022/04/10 00:55:09;;;;;;;2.60;0.82;;;20.80;63.50;;;;;;5030459;28;20026;-75
2022/04/10 00:57:35;;;;;;;1.25;1.02;;;20.80;63.50;;;;;;5031571;28;20021;-76
2022/04/10 01:00:00;;;;;;;4.63;1.20;;;20.70;63.50;;;;;;5029855;28;20476;-76
2022/04/10 01:02:26;;;;;;;1.52;0.60;;;20.80;63.50;;;;;;5031716;28;20492;-76
2022/04/10 01:04:52;;;;;;;3.25;0.80;;;20.80;63.50;;;;;;5031648;28;20029;-76
2022/04/10 01:07:17;;;;;;;4.80;1.00;;;20.80;63.50;;;;;;5030548;28;20392;-76
2022/04/10 01:09:44;;;;;;;1.75;0.70;;;20.80;63.50;;;;;;5028870;28;20026;-76
2022/04/10 01:12:12;;;;;;;1.17;0.82;;;20.80;63.50;;;;;;5030579;28;20028;-76
2022/04/10 01:14:37;;;;;;;1.20;0.70;;;20.80;63.50;;;;;;5013720;28;20041;-76
2022/04/10 01:17:06;;;;;;;1.83;0.70;;;20.80;63.50;;;;;;5030935;28;20076;-76
2022/04/10 01:19:32;;;;;;;1.10;0.70;;;20.80;63.50;;;;;;5045923;28;20025;-76
2022/04/10 01:21:59;;;;;;;3.03;0.80;;;20.80;63.50;;;;;;5046192;28;20467;-76
2022/04/10 01:24:25;;;;;;;1.13;0.80;;;20.80;63.50;;;;;;5063091;28;20304;-76
2022/04/10 01:26:51;;;;;;;2.20;0.65;;;20.80;63.50;;;;;;5031278;28;20025;-76
2022/04/10 01:29:17;;;;;;;6.43;1.00;;;20.80;63.50;;;;;;5031510;28;20033;-76
2022/04/10 01:31:46;;;;;;;4.55;1.23;;;20.80;63.40;;;;;;5031092;28;20052;-76
2022/04/10 01:34:13;;;;;;;1.02;0.80;;;20.80;63.40;;;;;;5047132;28;20029;-76
2022/04/10 01:36:39;;;;;;;2.78;0.90;;;20.80;63.40;;;;;;5030385;28;20511;-76
2022/04/10 01:39:06;;;;;;;3.65;1.13;;;20.80;63.40;;;;;;5030475;28;20053;-76
2022/04/10 01:41:32;;;;;;;2.45;0.93;;;20.80;63.40;;;;;;5033536;28;20515;-76
2022/04/10 01:43:58;;;;;;;3.03;1.17;;;20.70;63.30;;;;;;5035099;28;20024;-76
2022/04/10 01:46:26;;;;;;;5.97;1.17;;;20.70;63.30;;;;;;5034772;28;20420;-76
2022/04/10 01:48:51;;;;;;;2.15;0.70;;;20.70;63.30;;;;;;5035007;28;20112;-76
2022/04/10 01:51:17;;;;;;;5.47;1.17;;;20.70;63.30;;;;;;5034910;28;20152;-76
2022/04/10 01:53:43;;;;;;;2.42;0.80;;;20.60;63.20;;;;;;5034764;28;20477;-76
2022/04/10 01:56:09;;;;;;;3.42;1.05;;;20.60;64.30;;;;;;5034713;28;20116;-76
2022/04/10 01:58:36;;;;;;;1.65;0.75;;;20.60;63.30;;;;;;5034835;28;20029;-76
2022/04/10 02:01:03;;;;;;;2.83;0.90;;;20.60;63.30;;;;;;5034783;28;20487;-76
2022/04/10 02:03:28;;;;;;;1.20;1.00;;;20.60;63.20;;;;;;5035003;28;20117;-76
2022/04/10 02:05:55;;;;;;;2.17;0.80;;;20.50;63.30;;;;;;5035578;28;20096;-76
2022/04/10 02:08:21;;;;;;;2.15;0.90;;;20.50;63.20;;;;;;5035745;28;20026;-76
2022/04/10 02:10:47;;;;;;;3.78;1.02;;;20.50;63.30;;;;;;5015199;28;20115;-76
2022/04/10 02:13:12;;;;;;;1.73;0.90;;;20.50;63.30;;;;;;5066279;28;20032;-76
2022/04/10 02:15:39;;;;;;;1.30;0.88;;;20.50;63.30;;;;;;5049340;28;20070;-76
2022/04/10 02:18:05;;;;;;;3.25;1.00;;;20.50;63.30;;;;;;5066124;28;20063;-76
2022/04/10 02:20:31;;;;;;;4.47;1.17;;;20.40;63.30;;;;;;5049076;28;20087;-75
2022/04/10 02:22:56;;;;;;;2.97;0.90;;;20.40;63.40;;;;;;5034617;28;20379;-76
2022/04/10 02:25:22;;;;;;;2.80;0.98;;;20.30;63.30;;;;;;5034086;28;20541;-76
2022/04/10 02:27:48;;;;;;;2.28;0.90;;;20.40;63.40;;;;;;5049181;28;20022;-75
2022/04/10 02:30:13;;;;;;;1.10;0.65;;;20.30;63.30;;;;;;5034106;28;20017;-76
2022/04/10 02:32:40;;;;;;;1.42;0.90;;;20.30;63.30;;;;;;5033991;28;20021;-76
2022/04/10 02:35:07;;;;;;;2.15;0.90;;;20.30;63.30;;;;;;5065105;28;20064;-76
2022/04/10 02:37:32;;;;;;;2.35;1.10;;;20.20;63.30;;;;;;5033910;28;20472;-76
2022/04/10 02:39:58;;;;;;;1.80;1.10;;;20.30;63.30;;;;;;5041779;28;20108;-76
2022/04/10 02:42:24;;;;;;;4.32;0.90;;;20.20;63.30;;;;;;5053544;28;20021;-76
2022/04/10 02:44:49;;;;;;;2.03;1.00;;;20.20;63.40;;;;;;5044717;28;20104;-76
2022/04/10 02:47:15;;;;;;;1.77;0.80;;;20.20;63.40;;;;;;5032546;28;20037;-76
2022/04/10 02:49:41;;;;;;;1.30;0.70;;;20.20;63.40;;;;;;5033798;28;20079;-76
2022/04/10 02:52:07;;;;;;;2.45;0.93;;;20.20;63.40;;;;;;5049834;28;20037;-76
2022/04/10 02:54:32;;;;;;;3.47;1.20;;;20.10;63.40;;;;;;5034813;28;20570;-76
2022/04/10 02:56:58;;;;;;;1.52;0.80;;;20.10;63.40;;;;;;5066853;28;20530;-76
2022/04/10 02:59:24;;;;;;;4.30;1.13;;;20.10;63.50;;;;;;5035055;28;20109;-76
2022/04/10 03:01:50;;;;;;;1.88;0.90;;;20.00;63.40;;;;;;5033486;28;20124;-76
2022/04/10 03:04:18;;;;;;;1.40;0.90;;;20.00;63.40;;;;;;5034514;28;20028;-76
2022/04/10 03:06:44;;;;;;;3.30;1.08;;;20.00;63.50;;;;;;5034787;28;20035;-76
2022/04/10 03:09:10;;;;;;;1.80;0.90;;;20.00;63.50;;;;;;5066862;28;20108;-76
2022/04/10 03:11:35;;;;;;;1.77;0.90;;;20.00;63.50;;;;;;5049954;28;20022;-76
2022/04/10 03:14:02;;;;;;;1.23;1.00;;;20.00;63.50;;;;;;5034520;28;20040;-75
2022/04/10 03:16:28;;;;;;;3.42;1.00;;;19.90;63.50;;;;;;5032887;28;20048;-76
2022/04/10 03:18:53;;;;;;;2.92;0.90;;;19.90;63.50;;;;;;5066057;28;20022;-76
2022/04/10 03:21:19;;;;;;;1.30;0.90;;;19.90;63.50;;;;;;5032023;28;20033;-76
2022/04/10 03:23:45;;;;;;;1.35;0.85;;;19.90;63.60;;;;;;5032529;28;20029;-76
2022/04/10 03:26:10;;;;;;;3.58;0.90;;;19.90;63.60;;;;;;5033316;28;20022;-76
2022/04/10 03:28:36;;;;;;;1.45;0.90;;;19.90;63.60;;;;;;5033259;28;20545;-76
2022/04/10 03:31:02;;;;;;;3.90;1.00;;;19.80;63.50;;;;;;5034207;28;20105;-76
2022/04/10 03:33:27;;;;;;;0.70;0.70;;;19.80;63.50;;;;;;5033064;28;20095;-76
2022/04/10 03:35:53;;;;;;;1.92;1.00;;;19.80;63.50;;;;;;5032762;28;20403;-76
2022/04/10 03:38:19;;;;;;;1.95;0.95;;;19.70;63.50;;;;;;5034054;28;20022;-76
2022/04/10 03:40:45;;;;;;;3.40;1.00;;;19.80;63.60;;;;;;5032183;28;20519;-76
2022/04/10 03:43:13;;;;;;;4.03;1.10;;;19.70;63.60;;;;;;5033912;28;20029;-76
2022/04/10 03:45:39;;;;;;;1.98;1.05;;;19.70;63.60;;;;;;5033959;28;20121;-76
2022/04/10 03:48:06;;;;;;;1.08;0.70;;;19.70;63.60;;;;;;5032504;28;20077;-76
2022/04/10 03:50:33;;;;;;;3.17;0.80;;;19.70;63.60;;;;;;5032708;28;20029;-76
2022/04/10 03:53:02;;;;;;;1.98;0.90;;;19.60;63.60;;;;;;5033667;28;20112;-76
2022/04/10 03:55:28;;;;;;;2.70;0.85;;;19.60;63.70;;;;;;5033968;28;20102;-76
2022/04/10 03:57:53;;;;;;;2.25;0.90;;;19.60;63.70;;;;;;5033821;28;20108;-76
2022/04/10 04:00:19;;;;;;;3.03;0.85;;;19.60;63.70;;;;;;5032744;28;20089;-76
2022/04/10 04:02:45;;;;;;;1.63;0.90;;;19.60;63.70;;;;;;5032033;28;20045;-76
2022/04/10 04:05:11;;;;;;;0.80;0.65;;;19.50;63.70;;;;;;5031460;28;20079;-75
2022/04/10 04:07:37;;;;;;;1.73;0.82;;;19.50;63.70;;;;;;5032438;28;20029;-76
2022/04/10 04:10:03;;;;;;;2.35;1.17;;;19.50;63.70;;;;;;5033437;28;20481;-76
2022/04/10 04:12:29;;;;;;;2.80;0.90;;;19.50;63.70;;;;;;5033464;28;20022;-76
2022/04/10 04:14:55;;;;;;;1.70;0.80;;;19.40;63.70;;;;;;5033295;28;20384;-76
2022/04/10 04:17:20;;;;;;;1.63;1.00;;;19.40;63.80;;;;;;5032154;28;20084;-76
2022/04/10 04:19:49;;;;;;;1.25;0.70;;;19.40;63.80;;;;;;5018476;28;20101;-76
2022/04/10 04:22:15;;;;;;;1.73;1.00;;;19.40;63.80;;;;;;5013598;28;20061;-76
2022/04/10 04:24:41;;;;;;;1.10;0.90;;;19.40;63.80;;;;;;5012424;28;20400;-75
2022/04/10 04:27:07;;;;;;;3.88;0.90;;;19.40;63.80;;;;;;5013312;28;20030;-76
2022/04/10 04:29:32;;;;;;;0.90;0.70;;;19.40;63.80;;;;;;5013584;28;20109;-76
2022/04/10 04:31:58;;;;;;;1.80;0.80;;;19.40;63.80;;;;;;5013164;28;20026;-75
2022/04/10 04:34:24;;;;;;;2.50;0.80;;;19.30;63.80;;;;;;5013208;28;20030;-76
2022/04/10 04:36:49;;;;;;;1.08;0.80;;;19.30;63.80;;;;;;5012017;28;20026;-76
2022/04/10 04:39:15;;;;;;;2.45;0.90;;;19.30;63.80;;;;;;5013345;28;20038;-76
2022/04/10 04:41:40;;;;;;;1.20;0.90;;;19.30;63.90;;;;;;5012054;28;20017;-75
2022/04/10 04:44:06;;;;;;;2.25;0.90;;;19.20;63.80;;;;;;5013097;28;20022;-76
2022/04/10 04:46:32;;;;;;;2.50;0.68;;;19.20;63.90;;;;;;5011517;28;20045;-76
2022/04/10 04:48:58;;;;;;;1.23;0.70;;;19.20;63.90;;;;;;5011879;28;20112;-76
2022/04/10 04:51:23;;;;;;;1.63;1.00;;;19.20;63.90;;;;;;5012100;28;20018;-76
2022/04/10 04:53:49;;;;;;;1.15;0.70;;;19.20;63.90;;;;;;5013102;28;20483;-75
2022/04/10 04:56:15;;;;;;;0.75;0.75;;;19.20;64.00;;;;;;5011714;28;20505;-76
2022/04/10 04:58:42;;;;;;;1.42;0.70;;;19.20;64.00;;;;;;5013023;28;20566;-76
2022/04/10 05:01:08;;;;;;;1.98;1.02;;;19.10;64.00;;;;;;5011462;28;20040;-76
2022/04/10 05:03:34;;;;;;;1.25;0.80;;;19.10;64.00;;;;;;5011753;28;20480;-75
2022/04/10 05:06:00;;;;;;;1.90;0.90;;;19.10;64.00;;;;;;5011675;28;20220;-75
2022/04/10 05:08:25;;;;;;;2.05;0.68;;;19.10;64.00;;;;;;4995382;28;20568;-76
2022/04/10 05:10:51;;;;;;;0.70;0.70;;;19.10;64.20;;;;;;5014777;28;20091;-75
2022/04/10 05:13:17;;;;;;;1.60;0.98;;;19.10;64.10;;;;;;5031282;28;20052;-75
2022/04/10 05:15:42;;;;;;;1.80;0.77;;;19.10;64.20;;;;;;5032161;28;20408;-75
2022/04/10 05:18:08;;;;;;;1.23;1.13;;;19.00;64.10;;;;;;5030681;28;20108;-75
2022/04/10 05:20:33;;;;;;;0.93;0.73;;;19.00;64.20;;;;;;5011542;28;20018;-75
2022/04/10 05:22:59;;;;;;;1.20;0.75;;;19.00;64.20;;;;;;5011446;28;20121;-75
2022/04/10 05:25:25;;;;;;;1.35;0.98;;;19.00;64.20;;;;;;5012594;28;20076;-75
2022/04/10 05:27:50;;;;;;;2.03;0.60;;;19.00;64.20;;;;;;5012602;28;20028;-75
2022/04/10 05:30:16;;;;;;;1.48;0.93;;;19.00;64.30;;;;;;5012483;28;20074;-75
2022/04/10 05:32:43;;;;;;;1.75;0.88;;;18.90;64.20;;;;;;5012752;28;20413;-75
2022/04/10 05:35:12;;;;;;;2.15;0.70;;;18.90;64.30;;;;;;5011083;28;20018;-76
2022/04/10 05:37:37;;;;;;;1.15;0.60;;;18.90;64.30;;;;;;5011302;28;20539;-75
2022/04/10 05:40:03;;;;;;;1.23;0.80;;;18.90;64.30;;;;;;5012447;28;20026;-75
2022/04/10 05:42:29;;;;;;;1.10;0.90;;;18.90;64.30;;;;;;5011158;28;20021;-75
2022/04/10 05:45:04;;;;;;;0.80;0.70;;;18.90;64.40;;;;;;5012102;28;20041;-75
2022/04/10 05:47:32;;;;;;;4.15;0.80;;;18.90;64.30;;;;;;5011356;28;20050;-75
2022/04/10 05:49:58;;;;;;;0.85;0.73;;;18.80;64.30;;;;;;5011459;28;20037;-75
2022/04/10 05:52:24;;;;;;;1.27;0.70;;;18.80;64.40;;;;;;5012525;28;20029;-75
2022/04/10 05:54:50;;;;;;;2.45;1.02;;;18.80;64.40;;;;;;5011133;28;20492;-75
2022/04/10 05:57:15;;;;;;;1.23;0.70;;;18.80;64.50;;;;;;5010803;28;20049;-75
2022/04/10 05:59:41;;;;;;;1.70;0.77;;;18.80;64.50;;;;;;5012345;28;20402;-75
2022/04/10 06:02:06;;;;;;;2.00;0.70;;;18.70;64.40;;;;;;5012172;28;20526;-75
2022/04/10 06:04:32;;;;;;;2.30;0.95;;;18.70;64.40;;;;;;5012559;28;20029;-75
2022/04/10 06:06:58;;;;;;;1.63;0.90;;;18.70;64.40;;;;;;5012188;28;20026;-76
2022/04/10 06:09:23;;;;;;;2.05;0.90;;;18.70;65.50;;;;;;5012194;28;20036;-76
2022/04/10 06:11:49;;;;;;;1.23;0.70;;;18.70;64.50;;;;;;5023251;28;20079;-75
2022/04/10 06:14:14;;;;;;;1.70;0.60;;;18.70;64.50;;;;;;5030540;28;20495;-76
2022/04/10 06:16:40;;;;;;;1.05;0.60;;;18.70;64.50;;;;;;5031851;28;20021;-75
2022/04/10 06:19:06;;;;;;;2.30;0.88;;;18.70;64.60;;;;;;5022277;28;20121;-75
2022/04/10 06:21:31;;;;;;;2.75;1.00;;;18.60;64.60;;;;;;5010936;28;20384;-75
2022/04/10 06:23:57;;;;;;;1.88;0.70;;;18.60;64.60;;;;;;5010906;28;20516;-75
2022/04/10 06:26:23;;;;;;;2.67;1.00;;;18.60;64.60;;;;;;5010926;28;20029;-75
2022/04/10 06:28:48;;;;;;;0.93;0.80;;;18.60;64.60;;;;;;5014845;28;20021;-75
2022/04/10 06:31:14;;;;;;;1.10;0.80;;;18.60;64.60;;;;;;5015520;28;20025;-75
2022/04/10 06:33:40;;;;;;;0.95;0.65;;;18.60;64.60;;;;;;5015789;28;20416;-75
2022/04/10 06:36:05;;;;;;;1.17;0.85;;;18.60;64.60;;;;;;5014233;28;20022;-75
2022/04/10 06:38:31;;;;;;;3.10;0.70;;;18.60;64.70;;;;;;5015459;28;20080;-75
2022/04/10 06:40:57;;;;;;;1.38;0.93;;;18.50;64.60;;;;;;5014115;28;20033;-75
2022/04/10 06:43:22;;;;;;;4.10;1.08;;;18.50;64.60;;;;;;5014256;28;20117;-75
2022/04/10 06:45:48;;;;;;;1.27;0.90;;;18.50;64.70;;;;;;5014124;28;20153;-75
2022/04/10 06:48:14;;;;;;;0.77;0.77;;;18.50;64.70;;;;;;5029433;28;20100;-76
2022/04/10 06:50:39;;;;;;;1.55;0.90;;;18.50;64.70;;;;;;5041778;28;20032;-75
2022/04/10 06:53:05;;;;;;;1.13;0.80;;;18.50;64.70;;;;;;5040640;28;20108;-76
2022/04/10 06:55:31;;;;;;;1.73;0.80;;;18.50;64.70;;;;;;5043390;28;20117;-76
2022/04/10 06:57:57;;;;;;;0.80;0.80;;;18.50;64.80;;;;;;5036920;28;20092;-75
2022/04/10 07:00:23;;;;;;;1.23;0.77;;;18.50;64.80;;;;;;5047749;28;20040;-75
2022/04/10 07:02:49;;;;;;;0.95;0.65;;;18.50;64.80;;;;;;5064552;28;20476;-75
2022/04/10 07:05:14;;;;;;;1.55;0.77;;;18.40;64.70;;;;;;5064294;28;20028;-76
2022/04/10 07:07:40;;;;;;;1.20;0.77;;;18.40;64.70;;;;;;5064357;28;20018;-75
2022/04/10 07:10:06;;;;;;;1.83;0.75;;;18.40;64.70;;;;;;5064216;28;20021;-75
2022/04/10 07:12:32;;;;;;;1.52;1.02;;;18.40;64.70;;;;;;5066123;28;20403;-75
2022/04/10 07:15:01;;;;;;;1.15;0.70;;;18.40;64.70;;;;;;5050568;28;20037;-75
2022/04/10 07:17:27;;;;;;;3.28;0.90;;;18.40;64.70;;;;;;5054537;28;20077;-75
2022/04/10 07:19:53;;;;;;;1.60;0.73;;;18.40;64.80;;;;;;5037309;28;20043;-75
2022/04/10 07:25:03;;;;;;;0.80;0.77;;;18.40;65.40;;;;;;5034863;28;20396;-75
2022/04/10 07:27:29;;;;;;;0.60;0.60;;;18.30;64.80;;;;;;5033384;28;20396;-75
2022/04/10 07:29:55;;;;;;;2.20;0.90;;;18.30;64.90;;;;;;5035050;28;20033;-75
2022/04/10 07:32:21;;;;;;;0.80;0.70;;;18.30;64.90;;;;;;5033378;28;20034;-75
2022/04/10 07:34:46;;;;;;;1.70;0.70;;;18.30;64.90;;;;;;5034824;28;20018;-75
2022/04/10 07:37:12;;;;;;;0.82;0.68;;;18.30;64.90;;;;;;5034696;28;20033;-75
2022/04/10 07:39:37;;;;;;;0.85;0.60;;;18.30;65.00;;;;;;5033082;28;20029;-75
2022/04/10 07:42:04;;;;;;;0.57;0.50;;;18.30;65.00;;;;;;5034824;28;20057;-75
2022/04/10 07:44:30;;;;;;;0.85;0.68;;;18.30;65.10;;;;;;5033105;28;20026;-75
2022/04/10 07:49:41;;;;;;;2.83;0.70;;;18.30;65.00;;;;;;5032754;28;20045;-75
2022/04/10 07:52:07;;;;;;;1.73;0.60;;;18.30;65.10;;;;;;5033045;28;20026;-75
2022/04/10 07:54:32;;;;;;;2.00;0.80;;;18.20;65.10;;;;;;5034120;28;20599;-75
2022/04/10 07:56:58;;;;;;;0.63;0.63;;;18.20;65.10;;;;;;5023282;28;20116;-75
2022/04/10 07:59:25;;;;;;;1.17;0.80;;;18.20;65.20;;;;;;5023150;28;20515;-75
2022/04/10 08:01:51;;;;;;;0.75;0.60;;;18.20;65.10;;;;;;5029565;28;20010;-75
2022/04/10 08:04:17;;;;;;;2.78;0.70;;;18.20;65.10;;;;;;5033204;28;20107;-75
2022/04/10 08:06:43;;;;;;;0.75;0.75;;;18.20;65.10;;;;;;5032525;28;20504;-75
2022/04/10 08:09:09;;;;;;;1.52;0.65;;;18.20;65.10;;;;;;5033348;28;20109;-75
2022/04/10 08:11:35;;;;;;;1.30;0.80;;;18.20;65.20;;;;;;5032334;28;20030;-75
2022/04/10 08:14:01;;;;;;;0.98;0.70;;;18.20;65.20;;;;;;5032618;28;20108;-75
2022/04/10 08:16:26;;;;;;;1.48;1.02;;;18.20;65.20;;;;;;5012053;28;20033;-75
2022/04/10 08:18:53;;;;;;;0.82;0.70;;;18.10;65.10;;;;;;5013599;28;20071;-75
2022/04/10 08:21:19;;;;;;;1.40;0.80;;;18.10;65.20;;;;;;5013450;28;20481;-76
2022/04/10 08:23:44;;;;;;;1.42;0.95;;;18.10;64.60;;;;;;5013523;28;20030;-76
2022/04/10 08:26:10;;;;;;;1.88;0.80;;;18.00;64.20;;;;;;5010979;28;20384;-72
2022/04/10 08:28:36;;;;;;;1.48;0.90;;;18.00;64.30;;;;;;5012202;28;20040;-71
2022/04/10 08:31:02;;;;;;;1.45;1.00;;;17.90;64.30;;;;;;5013283;28;20022;-73
2022/04/10 08:33:27;;;;;;;1.52;0.85;;;17.80;64.30;;;;;;5016903;28;20021;-73
2022/04/10 08:35:53;;;;;;;0.90;0.60;;;17.80;64.30;;;;;;5015398;28;20040;-72
2022/04/10 08:38:24;;;;;;;1.08;0.90;;;17.80;64.30;;;;;;5032745;28;20399;-74
2022/04/10 08:40:51;;;;;;;1.17;0.80;;;17.80;64.20;;;;;;5031701;28;20075;-72
2022/04/10 08:43:17;;;;;;;1.55;0.85;;;17.80;64.20;;;;;;5031804;28;20021;-72
2022/04/10 08:45:43;;;;;;;0.70;0.70;;;17.70;64.00;;;;;;4998881;28;20451;-72
2022/04/10 08:48:09;;;;;;;1.27;0.80;;;17.80;64.00;;;;;;5031567;28;20021;-72
2022/04/10 08:50:34;;;;;;;2.70;0.75;;;17.70;64.00;;;;;;5030963;28;20116;-72
2022/04/10 08:53:02;;;;;;;0.70;0.70;;;17.70;63.90;;;;;;5031311;28;20456;-72
2022/04/10 08:55:29;;;;;;;1.55;0.90;;;17.70;63.80;;;;;;5031564;28;20484;-72
2022/04/10 08:57:56;;;;;;;1.27;0.88;;;17.70;63.80;;;;;;5031713;28;20496;-73
2022/04/10 09:00:23;;;;;;;1.20;0.73;;;17.70;63.70;;;;;;5031400;28;20104;-72
2022/04/10 09:02:52;;;;;;;0.70;0.68;;;17.70;63.70;;;;;;5032748;28;20053;-72
2022/04/10 09:05:24;;;;;;;1.35;0.75;;;17.70;63.60;;;;;;5031200;28;20043;-72
2022/04/10 09:08:13;;;;;;;1.88;0.95;;;17.70;63.60;;;;;;5025736;28;20018;-72
2022/04/10 09:11:14;;;;;;;7.00;1.48;;;17.70;63.30;;;;;;5013030;28;20428;-73
2022/04/10 09:13:47;;;;;;;3.10;1.10;;;17.70;63.20;;;;;;4991045;28;20030;-73
2022/04/10 09:16:17;;;;;;;3.63;1.30;;;17.60;63.60;;;;;;4990548;28;20105;-73
2022/04/10 09:18:55;;;;;;;3.63;1.25;;;17.60;63.50;;;;;;4974784;28;20057;-72
2022/04/10 09:21:23;;;;;;;6.07;1.67;;;17.60;63.30;;;;;;4990557;28;20115;-72
2022/04/10 09:23:52;;;;;;;5.15;1.30;;;17.60;63.40;;;;;;4974587;28;20018;-72
2022/04/10 09:26:18;;;;;;;5.28;1.23;;;17.60;63.40;;;;;;4958539;28;20039;-72
2022/04/10 09:28:44;;;;;;;7.78;1.83;;;17.60;63.40;;;;;;4990729;28;20045;-72
2022/04/10 09:31:30;;;;;;;6.95;1.33;;;17.60;63.30;;;;;;4974760;28;20069;-72
2022/04/10 09:33:57;;;;;;;5.47;1.15;;;17.60;63.00;;;;;;4974828;28;20062;-72
2022/04/10 09:36:45;;;;;;;6.15;1.38;;;17.60;63.30;;;;;;4974188;28;20117;-72
2022/04/10 09:39:11;;;;;;;3.90;1.40;;;17.60;63.00;;;;;;4990796;28;20030;-73
2022/04/10 09:41:37;;;;;;;2.28;1.10;;;17.50;63.20;;;;;;4990581;28;20031;-72
2022/04/10 09:44:17;;;;;;;10.93;2.05;;;17.50;63.20;;;;;;4958639;28;20030;-73
2022/04/10 09:46:43;;;;;;;4.53;1.13;;;17.60;63.10;;;;;;4993076;28;20059;-73
2022/04/10 09:49:13;;;;;;;7.47;1.67;;;17.50;63.20;;;;;;5022709;28;20108;-72
2022/04/10 09:52:00;;;;;;;5.68;1.55;;;17.60;63.20;;;;;;5031821;28;20029;-72
2022/04/10 09:54:34;;;;;;;6.22;1.65;;;17.60;62.90;;;;;;5030782;28;20397;-73
2022/04/10 09:57:05;;;;;;;5.68;1.40;;;17.50;63.20;;;;;;5030802;28;20545;-73
2022/04/10 09:59:43;;;;;;;5.57;1.45;;;17.50;63.20;;;;;;5030665;28;20029;-73
2022/04/10 10:02:13;;;;;;;7.82;1.38;;;17.60;63.10;;;;;;5031088;28;20365;-73
2022/04/10 10:04:39;;;;;;;5.45;1.48;;;17.50;63.20;;;;;;5034549;28;20097;-72
2022/04/10 10:07:13;;;;;;;4.78;1.70;;;17.50;63.20;;;;;;5034703;28;20399;-73
2022/04/10 10:09:39;;;;;;;4.30;1.83;;;17.60;63.20;;;;;;5014974;28;20477;-73
2022/04/10 10:12:05;;;;;;;4.50;1.40;;;17.50;63.10;;;;;;5014825;28;20040;-73
2022/04/10 10:14:33;;;;;;;5.53;1.88;;;17.60;63.20;;;;;;5014855;28;20385;-73
2022/04/10 10:17:01;;;;;;;5.22;1.40;;;17.50;63.20;;;;;;5014848;28;20034;-73
2022/04/10 10:19:35;;;;;;;5.28;1.30;;;17.60;63.20;;;;;;5014382;28;20507;-73
2022/04/10 10:22:02;;;;;;;4.00;1.40;;;17.60;63.20;;;;;;5014961;28;20029;-73
2022/04/10 10:24:33;;;;;;;6.38;1.50;;;17.60;63.30;;;;;;5014646;28;20018;-73
2022/04/10 10:27:19;;;;;;;4.15;1.55;;;17.60;63.30;;;;;;5014631;28;20026;-72
2022/04/10 10:30:18;;;;;;;6.13;1.58;;;17.60;63.20;;;;;;5014518;28;20022;-78
2022/04/10 10:32:48;;;;;;;3.05;1.52;;;17.60;63.30;;;;;;5014293;28;20029;-78
2022/04/10 10:35:42;;;;;;;5.22;1.63;;;17.60;63.50;;;;;;5015793;28;20022;-75
2022/04/10 10:38:26;;;;;;;5.20;2.03;;;17.70;63.40;;;;;;5014319;28;20105;-76
2022/04/10 10:41:18;;;;;;;4.90;2.10;;;17.70;63.50;;;;;;5014371;28;20104;-76
2022/04/10 10:43:44;;;;;;;8.55;1.95;;;17.70;63.40;;;;;;5007151;28;20042;-76
2022/04/10 10:46:28;;;;;;;4.35;1.60;;;17.60;63.50;;;;;;5014234;28;20588;-76
2022/04/10 10:49:17;;;;;;;5.97;1.80;;;17.70;63.40;;;;;;5023951;28;20571;-76
2022/04/10 10:51:45;;;;;;;6.43;1.73;;;17.70;63.40;;;;;;5033797;28;20037;-76
2022/04/10 10:54:14;;;;;;;5.53;1.65;;;17.60;63.40;;;;;;5035017;28;20064;-76
2022/04/10 10:56:43;;;;;;;4.05;1.35;;;17.60;63.30;;;;;;5033805;28;20052;-75
2022/04/10 10:59:22;;;;;;;5.28;1.85;;;17.60;63.30;;;;;;5033842;28;20488;-76
2022/04/10 11:01:55;;;;;;;7.22;1.80;;;17.70;63.10;;;;;;5034712;28;20025;-76
2022/04/10 11:04:21;;;;;;;2.30;1.35;;;17.70;63.20;;;;;;5033585;28;20021;-76
2022/04/10 11:06:50;;;;;;;4.47;1.55;;;17.60;63.20;;;;;;5034814;28;20025;-76
2022/04/10 11:09:28;;;;;;;4.28;1.90;;;17.60;64.10;;;;;;5017576;28;20030;-76
2022/04/10 11:11:54;;;;;;;3.88;1.58;;;17.60;63.00;;;;;;5015160;28;20018;-76
2022/04/10 11:14:45;;;;;;;2.28;1.30;;;17.60;63.10;;;;;;5012990;28;20057;-76
2022/04/10 11:17:17;;;;;;;3.65;1.23;;;17.60;62.60;;;;;;5013471;28;20073;-76
2022/04/10 11:19:45;;;;;;;1.77;1.10;;;17.60;62.80;;;;;;5014668;28;20101;-76
2022/04/10 11:22:18;;;;;;;2.47;1.30;;;17.60;62.80;;;;;;5013683;28;20376;-75
2022/04/10 11:24:44;;;;;;;4.35;1.30;;;17.60;62.70;;;;;;5014114;28;20017;-76
2022/04/10 11:27:13;;;;;;;3.22;1.20;;;17.60;62.80;;;;;;5013533;28;20396;-76
2022/04/10 11:29:50;;;;;;;2.97;1.20;;;17.60;63.60;;;;;;5013396;28;20053;-76
2022/04/10 11:32:17;;;;;;;1.80;0.93;;;17.60;62.40;;;;;;5013291;28;20033;-76
2022/04/10 11:34:43;;;;;;;4.13;1.33;;;17.60;62.50;;;;;;5013581;28;20427;-76
2022/04/10 11:37:16;;;;;;;2.58;1.25;;;17.60;62.40;;;;;;5013128;28;20034;-73
2022/04/10 11:39:42;;;;;;;2.22;1.00;;;17.60;62.20;;;;;;5013096;28;20493;-75
2022/04/10 11:42:08;;;;;;;3.28;1.10;;;17.60;62.30;;;;;;5013289;28;20030;-80
2022/04/10 11:44:34;;;;;;;3.35;1.38;;;17.60;62.20;;;;;;5013226;28;20014;-79
2022/04/10 11:47:00;;;;;;;3.83;1.42;;;17.60;62.10;;;;;;5012886;28;20472;-75
2022/04/10 11:49:28;;;;;;;2.22;0.90;;;17.60;62.10;;;;;;5027401;28;20029;-71
2022/04/10 11:51:56;;;;;;;4.63;1.27;;;17.60;62.00;;;;;;5033053;28;20032;-72
2022/04/10 11:54:28;;;;;;;2.10;1.00;;;17.60;62.00;;;;;;5034179;28;20032;-72
2022/04/10 11:56:54;;;;;;;3.65;0.88;;;17.70;61.90;;;;;;5033814;28;20365;-77
2022/04/10 11:59:20;;;;;;;2.67;1.17;;;17.60;61.90;;;;;;5032426;28;20071;-71
2022/04/10 12:01:48;;;;;;;4.38;1.25;;;17.60;61.90;;;;;;5033873;28;20030;-70
2022/04/10 12:04:15;;;;;;;3.80;1.23;;;17.70;61.90;;;;;;5033749;28;20029;-71
2022/04/10 12:06:41;;;;;;;3.08;1.23;;;17.70;61.80;;;;;;5033765;28;20067;-71
2022/04/10 12:09:07;;;;;;;2.22;0.82;;;17.70;61.80;;;;;;5032361;28;20025;-72
2022/04/10 12:11:43;;;;;;;1.83;1.00;;;17.70;61.80;;;;;;5032181;28;20056;-72
2022/04/10 12:14:22;;;;;;;2.83;1.00;;;17.80;61.70;;;;;;5032232;28;20488;-73
2022/04/10 12:16:48;;;;;;;3.03;0.93;;;17.80;61.90;;;;;;5033567;28;20037;-72
2022/04/10 12:19:14;;;;;;;2.88;1.30;;;17.80;61.90;;;;;;5033579;28;20072;-74
2022/04/10 12:21:51;;;;;;;2.53;1.08;;;17.80;61.90;;;;;;5032087;28;20028;-75
2022/04/10 12:24:20;;;;;;;1.30;0.93;;;17.80;61.80;;;;;;5031996;28;20045;-73
2022/04/10 12:26:47;;;;;;;2.25;1.20;;;17.80;61.90;;;;;;5032731;28;20079;-73
2022/04/10 12:29:12;;;;;;;3.03;1.02;;;17.80;61.90;;;;;;5032013;28;20112;-72
2022/04/10 12:31:41;;;;;;;3.38;1.02;;;17.80;61.90;;;;;;5033212;28;20072;-69
2022/04/10 12:34:10;;;;;;;1.67;0.90;;;17.90;62.00;;;;;;5033167;28;20120;-71
2022/04/10 12:36:44;;;;;;;1.20;0.98;;;17.90;62.00;;;;;;5033279;28;20041;-71
2022/04/10 12:39:10;;;;;;;3.42;1.02;;;17.90;61.90;;;;;;5033141;28;20018;-67
2022/04/10 12:41:36;;;;;;;2.20;1.17;;;17.90;62.00;;;;;;5032987;28;20033;-73
2022/04/10 12:44:05;;;;;;;3.45;1.30;;;17.90;62.00;;;;;;5031643;28;20095;-72
2022/04/10 12:46:35;;;;;;;2.05;1.00;;;17.90;62.00;;;;;;5031716;28;20081;-72
2022/04/10 12:49:19;;;;;;;2.25;1.00;;;18.00;62.00;;;;;;5031820;28;20025;-73
2022/04/10 12:51:55;;;;;;;2.03;1.30;;;18.00;61.90;;;;;;5032870;28;20037;-72
2022/04/10 12:54:42;;;;;;;1.55;0.93;;;18.00;62.00;;;;;;5031618;28;20049;-71
2022/04/10 12:57:14;;;;;;;2.05;0.90;;;18.00;62.00;;;;;;5031450;28;20445;-72